Time;durP1;ratioP1;P1;durP2;ratioP2;P2;SDS_P1;SDS_P2;PMS_P1;PMS_P2;Temp;Humidity;BMP_temperature;BMP_pressure;BME280_temperature;BME280_humidity;BME280_pressure;Samples;Min_cycle;Max_cycle;Signal;HPM_P1;HPM_P2
2021/06/22 00:00:15;;;;;;;80.60;14.63;;;;;;;21.94;72.64;99336.94;130096;1089;22580;-69
2021/06/22 00:02:44;;;;;;;90.98;14.18;;;;;;;21.88;73.13;99333.57;129962;1090;115112;-69
2021/06/22 00:05:13;;;;;;;79.53;14.90;;;;;;;21.83;73.55;99325.44;130113;1089;22570;-68
2021/06/22 00:07:41;;;;;;;77.00;13.28;;;;;;;21.78;73.84;99328.43;129998;1090;114262;-68
2021/06/22 00:10:11;;;;;;;84.78;17.03;;;;;;;21.75;73.93;99326.33;130071;1090;22705;-69
2021/06/22 00:12:41;;;;;;;75.53;14.18;;;;;;;21.70;73.98;99323.73;130098;1090;23397;-69
2021/06/22 00:15:12;;;;;;;75.18;13.95;;;;;;;21.66;74.23;99331.91;129951;1090;114126;-69
2021/06/22 00:17:40;;;;;;;66.03;12.73;;;;;;;21.61;73.86;99328.54;130079;1090;22569;-69
2021/06/22 00:20:09;;;;;;;72.50;14.70;;;;;;;21.55;73.90;99324.32;129964;1090;114258;-69
2021/06/22 00:22:38;;;;;;;79.50;14.25;;;;;;;21.49;74.25;99321.77;130067;1090;22742;-69
2021/06/22 00:25:08;;;;;;;71.78;13.83;;;;;;;21.45;74.26;99325.53;130043;1090;22567;-69
2021/06/22 00:28:35;;;;;;;63.80;13.87;;;;;;;21.40;74.56;99332.06;125588;1093;22775;-70
2021/06/22 00:31:03;;;;;;;68.73;15.18;;;;;;;21.37;74.24;99332.73;125356;1091;26834;-69
2021/06/22 00:33:32;;;;;;;83.63;12.78;;;;;;;21.32;74.51;99341.25;125122;1092;114182;-70
2021/06/22 00:36:01;;;;;;;63.88;13.93;;;;;;;21.27;74.65;99333.11;129776;1092;23364;-70
2021/06/22 00:38:30;;;;;;;75.25;15.38;;;;;;;21.22;75.12;99333.29;129739;1093;113829;-71
2021/06/22 00:40:58;;;;;;;89.10;16.45;;;;;;;21.18;74.92;99333.13;126201;1093;24326;-70
2021/06/22 00:43:27;;;;;;;126.15;18.35;;;;;;;21.16;75.85;99331.84;125249;1093;26735;-70
2021/06/22 00:45:56;;;;;;;127.55;21.05;;;;;;;21.18;76.39;99333.13;129641;1092;114275;-70
2021/06/22 00:48:25;;;;;;;124.38;21.08;;;;;;;21.22;76.79;99327.75;129784;1092;22581;-70
2021/06/22 00:50:53;;;;;;;96.70;18.05;;;;;;;21.27;76.60;99312.91;129874;1093;114525;-70
2021/06/22 00:53:22;;;;;;;131.38;20.65;;;;;;;21.30;76.57;99312.23;130018;1093;23139;-68
2021/06/22 00:55:54;;;;;;;127.83;20.15;;;;;;;21.32;76.69;99321.04;129810;1092;22548;-68
2021/06/22 00:58:34;;;;;;;113.25;19.65;;;;;;;21.36;76.82;99319.20;129663;1093;114319;-68
2021/06/22 01:01:02;;;;;;;125.98;20.08;;;;;;;21.40;76.74;99320.98;129784;1092;22544;-68
2021/06/22 01:03:31;;;;;;;119.78;18.80;;;;;;;21.39;76.58;99304.68;129666;1093;114147;-68
2021/06/22 01:06:04;;;;;;;97.15;16.45;;;;;;;21.47;76.46;99312.97;129770;1093;22567;-68
2021/06/22 01:08:34;;;;;;;96.53;16.80;;;;;;;21.48;76.11;99303.50;129661;1093;114645;-68
2021/06/22 01:11:03;;;;;;;105.75;19.10;;;;;;;21.51;76.07;99315.86;129746;1093;23135;-68
2021/06/22 01:13:31;;;;;;;100.80;19.00;;;;;;;21.52;75.81;99323.84;129816;1093;22628;-68
2021/06/22 01:16:00;;;;;;;110.65;17.33;;;;;;;21.52;75.47;99321.06;129662;1092;116628;-68
2021/06/22 01:18:29;;;;;;;103.10;17.35;;;;;;;21.51;75.19;99321.40;129809;1092;23345;-68
2021/06/22 01:21:18;;;;;;;96.98;15.85;;;;;;;21.49;75.10;99330.08;129587;1092;114151;-68
2021/06/22 01:23:54;;;;;;;102.48;16.63;;;;;;;21.46;74.98;99316.07;129776;1093;22584;-68
2021/06/22 01:26:23;;;;;;;88.93;15.37;;;;;;;21.45;74.98;99312.48;129598;1093;114366;-68
2021/06/22 01:28:52;;;;;;;117.23;18.48;;;;;;;21.42;74.90;99309.56;129790;1093;22542;-68
2021/06/22 01:31:21;;;;;;;105.05;18.25;;;;;;;21.42;75.34;99295.70;129688;1093;23347;-68
2021/06/22 01:33:50;;;;;;;126.70;20.83;;;;;;;21.42;75.68;99285.42;129650;1092;115345;-69
2021/06/22 01:36:21;;;;;;;93.40;18.40;;;;;;;21.45;75.31;99281.98;129740;1093;22755;-69
2021/06/22 01:38:51;;;;;;;113.05;19.43;;;;;;;21.45;75.23;99278.41;129628;1092;115283;-68
2021/06/22 01:41:19;;;;;;;115.08;16.70;;;;;;;21.45;75.17;99279.22;129782;1091;22587;-69
2021/06/22 01:43:50;;;;;;;98.20;18.10;;;;;;;21.47;74.74;99276.92;129766;1093;22576;-68
2021/06/22 01:46:19;;;;;;;105.68;18.08;;;;;;;21.46;74.82;99272.53;129670;1093;114788;-69
2021/06/22 01:48:48;;;;;;;92.40;16.55;;;;;;;21.46;74.63;99278.07;129771;1092;22658;-69
2021/06/22 01:51:17;;;;;;;106.53;17.75;;;;;;;21.47;74.56;99263.06;129679;1093;114160;-69
2021/06/22 01:53:58;;;;;;;104.48;18.05;;;;;;;21.47;74.36;99265.02;130008;1093;22667;-69
2021/06/22 01:56:28;;;;;;;103.68;18.73;;;;;;;21.48;74.33;99261.92;129952;1093;114275;-69
2021/06/22 01:59:00;;;;;;;104.85;18.65;;;;;;;21.49;74.06;99269.09;130019;1093;22644;-69
2021/06/22 02:01:48;;;;;;;102.40;16.70;;;;;;;21.45;74.01;99275.63;130002;1093;23366;-69
2021/06/22 02:04:35;;;;;;;104.03;17.88;;;;;;;21.41;73.89;99285.76;129965;1093;115843;-70
2021/06/22 02:07:26;;;;;;;110.88;18.58;;;;;;;21.38;74.33;99286.42;130013;1092;22631;-70
2021/06/22 02:10:09;;;;;;;104.30;18.33;;;;;;;21.37;74.24;99291.16;129764;1093;115117;-70
2021/06/22 02:13:01;;;;;;;128.18;19.18;;;;;;;21.38;74.46;99291.97;129839;1092;23428;-70
2021/06/22 02:15:31;;;;;;;94.43;17.03;;;;;;;21.37;74.44;99279.25;129326;1092;114161;-69
2021/06/22 02:18:00;;;;;;;111.23;18.30;;;;;;;21.39;74.68;99285.28;125385;1091;25602;-69
2021/06/22 02:20:28;;;;;;;107.30;19.28;;;;;;;21.40;74.55;99275.81;129895;1093;114633;-70
2021/06/22 02:22:57;;;;;;;105.38;18.55;;;;;;;21.43;74.39;99269.61;130448;1090;22540;-70
2021/06/22 02:25:26;;;;;;;94.28;16.80;;;;;;;21.45;74.27;99276.45;130439;1090;22619;-70
2021/06/22 02:28:03;;;;;;;107.60;19.60;;;;;;;21.48;74.13;99277.74;130331;1090;114034;-70
2021/06/22 02:30:32;;;;;;;105.58;17.20;;;;;;;21.51;74.06;99277.05;130428;1089;22514;-70
2021/06/22 02:33:01;;;;;;;88.33;13.68;;;;;;;21.52;74.17;99265.63;130353;1089;113456;-70
2021/06/22 02:35:30;;;;;;;101.73;18.73;;;;;;;21.53;74.22;99271.98;130464;1088;22579;-70
2021/06/22 02:38:03;;;;;;;112.25;19.95;;;;;;;21.56;73.99;99265.77;130482;1090;22525;-70
2021/06/22 02:40:31;;;;;;;100.93;17.85;;;;;;;21.59;73.85;99267.06;130305;1088;114115;-70
2021/06/22 02:43:00;;;;;;;96.85;18.00;;;;;;;21.61;73.71;99261.99;130415;1090;22541;-70
2021/06/22 02:45:29;;;;;;;104.98;17.30;;;;;;;21.63;73.10;99265.24;130362;1090;114326;-70
2021/06/22 02:47:58;;;;;;;100.85;16.35;;;;;;;21.66;73.51;99264.55;130478;1089;22698;-70
2021/06/22 02:50:33;;;;;;;119.13;18.68;;;;;;;21.69;73.34;99264.69;130341;1090;114773;-70
2021/06/22 02:53:02;;;;;;;117.63;18.68;;;;;;;21.73;73.37;99267.61;130460;1090;22591;-70
2021/06/22 02:55:30;;;;;;;112.30;19.48;;;;;;;21.75;73.15;99273.63;130435;1090;22562;-63
2021/06/22 02:58:04;;;;;;;98.38;16.75;;;;;;;21.76;73.29;99269.71;130346;1090;114144;-63
2021/06/22 03:00:34;;;;;;;102.40;17.45;;;;;;;21.77;73.16;99260.24;130424;1089;24362;-63
2021/06/22 03:03:07;;;;;;;98.28;16.98;;;;;;;21.79;73.17;99275.38;130317;1089;114923;-62
2021/06/22 03:05:40;;;;;;;105.93;18.48;;;;;;;21.83;73.17;99269.97;130451;1089;22519;-63
2021/06/22 03:08:08;;;;;;;101.30;16.33;;;;;;;21.85;72.89;99274.03;130477;1088;22594;-63
2021/06/22 03:10:39;;;;;;;93.45;18.10;;;;;;;21.87;72.88;99268.14;130330;1090;113884;-62
2021/06/22 03:13:07;;;;;;;95.18;16.58;;;;;;;21.90;72.90;99269.44;130468;1089;22618;-62
2021/06/22 03:15:53;;;;;;;97.75;16.90;;;;;;;21.92;72.84;99270.73;130354;1090;114248;-63
2021/06/22 03:18:25;;;;;;;99.63;15.88;;;;;;;21.92;73.22;99276.27;130475;1089;22602;-62
2021/06/22 03:20:54;;;;;;;98.50;18.43;;;;;;;21.94;72.64;99279.49;130326;1089;114329;-62
2021/06/22 03:23:23;;;;;;;88.30;17.45;;;;;;;21.97;72.48;99291.88;130438;1089;22540;-63
2021/06/22 03:25:53;;;;;;;107.80;16.03;;;;;;;21.99;72.35;99290.42;130400;1087;22583;-63
2021/06/22 03:28:22;;;;;;;92.45;14.68;;;;;;;22.04;72.31;99292.20;130370;1090;114575;-63
2021/06/22 03:31:04;;;;;;;85.33;16.10;;;;;;;22.08;71.76;99298.66;130441;1090;23081;-63
2021/06/22 03:33:32;;;;;;;79.78;14.18;;;;;;;22.12;71.77;99300.43;130378;1089;114072;-62
2021/06/22 03:36:01;;;;;;;96.88;17.20;;;;;;;22.17;71.27;99288.32;130430;1089;22568;-63
2021/06/22 03:38:29;;;;;;;95.38;17.65;;;;;;;22.25;71.01;99306.84;130363;1090;114336;-63
2021/06/22 03:40:59;;;;;;;89.83;14.93;;;;;;;22.31;70.56;99296.35;130456;1088;23743;-63
2021/06/22 03:43:28;;;;;;;68.00;12.70;;;;;;;22.37;70.37;99295.78;130449;1089;22626;-63
2021/06/22 03:45:57;;;;;;;88.50;14.13;;;;;;;22.43;70.25;99286.09;130389;1090;114248;-63
2021/06/22 03:48:29;;;;;;;75.20;12.08;;;;;;;22.49;69.57;99298.63;130443;1090;23359;-63
2021/06/22 03:50:57;;;;;;;82.28;13.90;;;;;;;22.56;69.17;99298.05;130335;1089;114576;-63
2021/06/22 03:53:26;;;;;;;56.90;11.45;;;;;;;22.64;69.18;99308.27;130402;1089;23283;-63
2021/06/22 03:55:55;;;;;;;63.05;11.18;;;;;;;22.70;68.96;99292.99;130482;1090;22500;-63
2021/06/22 03:58:37;;;;;;;62.80;10.00;;;;;;;22.76;68.25;99297.21;130350;1089;113883;-63
2021/06/22 04:01:06;;;;;;;76.20;12.70;;;;;;;22.81;67.96;99285.86;130487;1089;22568;-63
2021/06/22 04:03:37;;;;;;;84.95;14.05;;;;;;;22.86;67.50;99285.64;130331;1090;114921;-63
2021/06/22 04:06:26;;;;;;;63.38;12.60;;;;;;;22.91;67.35;99279.88;130484;1087;22565;-63
2021/06/22 04:08:59;;;;;;;61.63;11.23;;;;;;;22.95;67.00;99287.50;130341;1087;114284;-63
2021/06/22 04:11:28;;;;;;;54.18;10.63;;;;;;;22.97;66.96;99279.63;130450;1089;22697;-63
2021/06/22 04:13:58;;;;;;;63.10;9.68;;;;;;;23.01;66.91;99286.94;130374;1087;22609;-63
2021/06/22 04:16:35;;;;;;;79.33;11.40;;;;;;;23.05;67.00;99285.09;130387;1089;114164;-63
2021/06/22 04:19:03;;;;;;;58.78;10.08;;;;;;;23.09;67.21;99291.56;130442;1088;22591;-63
2021/06/22 04:21:37;;;;;;;57.58;10.93;;;;;;;23.14;67.09;99294.13;130340;1088;114003;-63
2021/06/22 04:24:06;;;;;;;63.55;10.98;;;;;;;23.18;66.62;99297.84;130477;1089;22618;-63
2021/06/22 04:26:36;;;;;;;61.05;12.68;;;;;;;23.23;66.12;99303.15;130305;1089;114008;-63
2021/06/22 04:29:06;;;;;;;63.38;11.58;;;;;;;23.30;65.35;99308.14;130439;1088;22593;-63
2021/06/22 04:31:34;;;;;;;66.03;10.08;;;;;;;23.38;63.47;99315.54;130452;1089;22534;-63
2021/06/22 04:34:03;;;;;;;53.95;9.33;;;;;;;23.45;63.26;99312.19;130344;1089;114193;-63
2021/06/22 04:36:31;;;;;;;57.57;10.13;;;;;;;23.50;63.30;99298.06;130392;1089;22556;-63
2021/06/22 04:39:00;;;;;;;49.43;9.08;;;;;;;23.59;63.20;99307.92;130297;1090;114186;-63
2021/06/22 04:41:28;;;;;;;56.15;9.08;;;;;;;23.66;62.29;99303.76;130508;1090;22548;-63
2021/06/22 04:43:56;;;;;;;49.60;8.58;;;;;;;23.72;61.47;99302.34;130436;1090;22645;-63
2021/06/22 04:46:25;;;;;;;43.08;8.10;;;;;;;23.76;60.70;99298.52;130335;1089;114857;-63
2021/06/22 04:48:53;;;;;;;51.48;8.90;;;;;;;23.84;60.48;99297.55;130426;1089;22632;-63
2021/06/22 04:51:22;;;;;;;41.33;8.60;;;;;;;23.89;60.36;99291.75;130366;1090;114022;-63
2021/06/22 04:53:50;;;;;;;41.95;7.28;;;;;;;23.96;60.70;99293.92;130463;1090;22540;-63
2021/06/22 04:56:22;;;;;;;31.60;7.38;;;;;;;24.03;59.67;99288.58;128156;1090;115179;-62
2021/06/22 04:58:52;;;;;;;44.88;8.53;;;;;;;24.09;59.33;99281.61;125798;1089;22916;-62
2021/06/22 05:01:20;;;;;;;48.45;8.73;;;;;;;24.15;58.82;99282.16;130374;1089;22641;-63
2021/06/22 05:03:49;;;;;;;41.90;7.85;;;;;;;24.20;58.87;99271.59;130368;1089;113993;-65
2021/06/22 05:06:17;;;;;;;41.75;7.80;;;;;;;24.26;58.73;99281.31;130387;1089;23335;-67
2021/06/22 05:08:45;;;;;;;40.90;7.88;;;;;;;24.33;58.15;99275.15;130373;1088;113992;-65
2021/06/22 05:11:14;;;;;;;47.35;9.55;;;;;;;24.42;57.70;99269.41;130423;1089;22554;-65
2021/06/22 05:13:42;;;;;;;37.28;8.00;;;;;;;24.51;57.18;99268.10;130489;1088;22568;-64
2021/06/22 05:16:11;;;;;;;37.30;8.30;;;;;;;24.61;56.82;99262.00;130339;1089;114387;-65
2021/06/22 05:18:39;;;;;;;58.80;9.20;;;;;;;24.76;56.25;99265.16;130468;1088;22593;-66
2021/06/22 05:21:08;;;;;;;38.43;7.23;;;;;;;24.90;55.78;99266.33;130342;1089;113939;-65
2021/06/22 05:23:36;;;;;;;33.45;6.63;;;;;;;25.06;55.04;99266.36;130460;1089;23382;-65
2021/06/22 05:26:04;;;;;;;33.83;6.93;;;;;;;25.21;54.82;99270.30;130453;1089;22700;-65
2021/06/22 05:28:33;;;;;;;32.08;7.13;;;;;;;25.38;53.97;99266.33;130381;1089;113154;-65
2021/06/22 05:31:01;;;;;;;40.98;6.38;;;;;;;25.53;53.18;99274.67;130417;1090;22576;-66
2021/06/22 05:33:30;;;;;;;46.75;6.63;;;;;;;25.70;52.44;99271.48;130390;1089;113981;-65
2021/06/22 05:35:58;;;;;;;28.48;6.38;;;;;;;25.84;52.05;99278.55;130117;1090;22546;-65
2021/06/22 05:38:27;;;;;;;35.18;6.48;;;;;;;25.91;50.89;99278.71;130100;1090;114271;-65
2021/06/22 05:40:55;;;;;;;30.85;6.33;;;;;;;25.97;50.50;99286.41;130464;1090;23598;-65
2021/06/22 05:43:24;;;;;;;30.80;8.30;;;;;;;26.03;50.52;99290.55;130487;1090;22615;-65
2021/06/22 05:45:52;;;;;;;37.03;7.18;;;;;;;26.11;50.41;99293.50;130349;1089;115232;-65
2021/06/22 05:48:20;;;;;;;32.43;6.18;;;;;;;26.16;49.58;99293.19;130493;1089;22554;-66
2021/06/22 05:50:49;;;;;;;23.95;5.90;;;;;;;26.16;49.97;99294.00;130405;1088;114154;-65
2021/06/22 05:53:17;;;;;;;33.85;7.40;;;;;;;26.16;50.81;99290.39;130453;1087;23366;-66
2021/06/22 05:55:46;;;;;;;36.18;7.30;;;;;;;26.19;50.78;99284.89;130498;1090;22549;-65
2021/06/22 05:58:14;;;;;;;24.83;6.13;;;;;;;26.20;49.73;99286.51;130299;1087;113367;-66
2021/06/22 06:00:43;;;;;;;30.43;7.40;;;;;;;26.23;51.16;99279.39;130510;1090;22527;-65
2021/06/22 06:03:11;;;;;;;18.98;6.18;;;;;;;26.26;50.96;99275.83;130340;1087;113934;-65
2021/06/22 06:05:40;;;;;;;27.35;5.90;;;;;;;26.26;50.61;99279.44;130466;1088;22568;-62
2021/06/22 06:08:08;;;;;;;24.18;7.03;;;;;;;26.25;51.18;99279.83;130482;1089;22618;-61
2021/06/22 06:10:37;;;;;;;36.40;6.03;;;;;;;26.26;50.70;99275.83;130429;1090;113759;-61
2021/06/22 06:13:05;;;;;;;33.95;9.88;;;;;;;26.29;50.06;99277.92;130464;1089;22597;-62
2021/06/22 06:15:33;;;;;;;29.18;7.50;;;;;;;26.29;49.54;99267.56;130411;1088;114134;-61
2021/06/22 06:18:03;;;;;;;41.03;8.05;;;;;;;26.34;50.54;99274.84;130465;1090;22564;-61
2021/06/22 06:20:32;;;;;;;26.28;5.28;;;;;;;26.36;50.08;99276.09;130388;1090;114314;-61
2021/06/22 06:23:00;;;;;;;25.75;7.18;;;;;;;26.38;50.18;99275.73;130446;1088;23032;-61
2021/06/22 06:25:28;;;;;;;20.30;5.45;;;;;;;26.41;50.40;99277.77;130516;1090;23420;-62
2021/06/22 06:28:01;;;;;;;34.10;7.10;;;;;;;26.45;50.29;99280.63;130353;1088;115567;-61
2021/06/22 06:30:31;;;;;;;31.60;8.08;;;;;;;26.48;50.08;99268.72;130497;1089;22643;-62
2021/06/22 06:32:59;;;;;;;30.90;5.93;;;;;;;26.50;49.38;99263.58;130373;1089;114269;-61
2021/06/22 06:35:28;;;;;;;23.93;6.73;;;;;;;26.51;49.29;99254.02;130531;1088;22493;-65
2021/06/22 06:37:56;;;;;;;28.18;6.83;;;;;;;26.52;49.33;99250.05;130427;1090;22590;-65
2021/06/22 06:40:25;;;;;;;33.30;6.03;;;;;;;26.49;49.47;99250.78;130402;1090;113957;-65
2021/06/22 06:42:53;;;;;;;21.48;5.43;;;;;;;26.44;49.20;99253.87;130502;1087;22525;-65
2021/06/22 06:45:23;;;;;;;26.10;5.65;;;;;;;26.39;49.73;99250.22;130398;1088;114225;-65
2021/06/22 06:47:53;;;;;;;17.38;4.53;;;;;;;26.40;49.22;99251.03;130497;1090;22738;-65
2021/06/22 06:50:22;;;;;;;30.35;6.35;;;;;;;26.42;48.78;99254.23;130316;1088;114421;-66
2021/06/22 06:52:50;;;;;;;16.60;4.25;;;;;;;26.46;49.35;99251.52;130519;1089;22559;-65
2021/06/22 06:55:25;;;;;;;22.03;5.58;;;;;;;26.51;49.94;99259.61;130453;1089;23477;-65
2021/06/22 06:57:55;;;;;;;14.85;4.55;;;;;;;26.57;50.20;99258.91;130385;1089;114432;-65
2021/06/22 07:00:24;;;;;;;17.53;4.78;;;;;;;26.63;48.94;99263.03;130479;1089;23189;-66
2021/06/22 07:02:52;;;;;;;20.93;5.30;;;;;;;26.69;49.40;99269.91;130398;1088;114510;-65
2021/06/22 07:05:21;;;;;;;18.35;4.95;;;;;;;26.76;50.34;99286.02;130091;1088;22573;-66
2021/06/22 07:07:50;;;;;;;29.88;5.40;;;;;;;26.80;50.48;99289.70;125969;1090;22793;-66
2021/06/22 07:10:18;;;;;;;22.93;4.95;;;;;;;26.86;48.96;99288.19;125760;1090;114823;-65
2021/06/22 07:12:48;;;;;;;25.30;5.38;;;;;;;26.92;48.73;99288.70;130511;1087;23671;-65
2021/06/22 07:15:18;;;;;;;18.45;5.13;;;;;;;26.97;49.33;99302.41;130331;1090;114047;-65
2021/06/22 07:17:47;;;;;;;24.38;5.68;;;;;;;27.04;48.06;99306.13;130476;1090;22502;-65
2021/06/22 07:20:16;;;;;;;32.05;5.38;;;;;;;27.09;47.55;99296.63;130343;1089;114534;-65
2021/06/22 07:22:44;;;;;;;20.40;5.13;;;;;;;27.07;47.25;99299.80;130501;1089;22548;-65
2021/06/22 07:25:14;;;;;;;23.15;5.23;;;;;;;27.03;47.57;99301.71;130447;1090;22585;-65
2021/06/22 07:27:43;;;;;;;26.78;5.85;;;;;;;26.98;46.42;99306.83;130395;1090;114213;-65
2021/06/22 07:30:12;;;;;;;32.95;5.33;;;;;;;26.90;47.47;99294.66;130455;1089;22580;-65
2021/06/22 07:32:40;;;;;;;25.43;5.10;;;;;;;26.87;47.95;99291.80;130401;1090;114200;-65
2021/06/22 07:35:09;;;;;;;17.68;5.68;;;;;;;26.84;47.54;99296.14;130498;1090;22532;-65
2021/06/22 07:37:40;;;;;;;13.80;4.80;;;;;;;26.82;47.85;99292.93;130505;1089;23057;-65
2021/06/22 07:40:09;;;;;;;23.88;5.33;;;;;;;26.83;48.29;99293.74;130387;1087;113315;-65
2021/06/22 07:42:37;;;;;;;21.50;4.78;;;;;;;26.85;48.30;99303.34;130487;1089;23087;-65
2021/06/22 07:45:10;;;;;;;24.28;4.90;;;;;;;26.90;48.53;99300.25;130413;1087;114211;-65
2021/06/22 07:47:38;;;;;;;18.95;5.20;;;;;;;26.96;48.28;99306.39;130404;1088;22560;-65
2021/06/22 07:50:08;;;;;;;20.83;5.15;;;;;;;27.00;48.82;99307.23;130479;1089;23322;-65
2021/06/22 07:52:37;;;;;;;25.35;5.58;;;;;;;27.06;48.03;99300.97;130388;1088;113943;-65
2021/06/22 07:55:06;;;;;;;33.73;4.90;;;;;;;27.13;48.43;99300.27;130488;1089;23327;-65
2021/06/22 07:57:35;;;;;;;22.80;5.58;;;;;;;27.19;49.57;99303.57;130335;1087;113312;-65
2021/06/22 08:00:06;;;;;;;20.48;5.40;;;;;;;27.25;48.24;99294.50;130512;1090;22625;-65
2021/06/22 08:02:38;;;;;;;28.50;5.73;;;;;;;27.32;47.97;99289.00;130356;1086;114109;-65
2021/06/22 08:05:07;;;;;;;36.63;6.03;;;;;;;27.42;47.32;99290.34;130516;1087;22578;-65
2021/06/22 08:07:35;;;;;;;31.88;6.68;;;;;;;27.48;47.61;99283.25;130469;1088;22573;-65
2021/06/22 08:10:04;;;;;;;41.43;7.55;;;;;;;27.54;46.82;99284.56;130417;1089;114063;-66
2021/06/22 08:12:33;;;;;;;38.03;7.05;;;;;;;27.61;46.85;99283.88;130479;1087;22663;-66
2021/06/22 08:15:02;;;;;;;32.75;6.53;;;;;;;27.68;45.92;99284.80;130378;1089;114218;-65
2021/06/22 08:17:31;;;;;;;51.18;7.90;;;;;;;27.73;46.12;99284.45;130471;1088;22580;-65
2021/06/22 08:20:00;;;;;;;53.13;9.85;;;;;;;27.78;46.02;99277.73;130485;1090;22661;-65
2021/06/22 08:22:29;;;;;;;61.08;10.40;;;;;;;27.82;44.64;99277.78;130367;1090;113195;-65
2021/06/22 08:24:58;;;;;;;52.05;9.05;;;;;;;27.89;44.66;99286.27;130496;1090;23067;-64
2021/06/22 08:27:26;;;;;;;73.45;11.48;;;;;;;27.93;44.68;99293.54;130313;1090;113973;-66
2021/06/22 08:29:54;;;;;;;66.47;12.00;;;;;;;27.99;43.95;99294.80;130508;1087;22618;-65
2021/06/22 08:32:23;;;;;;;61.85;10.95;;;;;;;28.00;44.59;99290.81;130337;1089;114662;-65
2021/06/22 08:34:51;;;;;;;67.80;11.85;;;;;;;28.03;44.45;99298.47;130507;1090;22561;-66
2021/06/22 08:37:24;;;;;;;69.13;11.08;;;;;;;28.05;45.01;99306.49;130500;1089;23799;-66
2021/06/22 08:39:52;;;;;;;73.70;13.55;;;;;;;28.08;45.14;99306.55;130071;1088;114192;-66
2021/06/22 08:42:21;;;;;;;68.05;11.78;;;;;;;28.14;43.63;99307.81;130503;1089;22550;-66
2021/06/22 08:44:50;;;;;;;77.83;11.70;;;;;;;28.23;44.43;99289.95;130333;1089;114498;-66
2021/06/22 08:47:23;;;;;;;112.63;18.90;;;;;;;28.30;42.69;99295.63;130508;1089;22542;-66
2021/06/22 08:49:53;;;;;;;104.38;15.93;;;;;;;28.36;42.59;99289.31;130503;1090;22555;-65
2021/06/22 08:52:25;;;;;;;91.83;15.73;;;;;;;28.42;42.23;99287.76;130359;1088;114299;-66
2021/06/22 08:54:54;;;;;;;87.68;14.10;;;;;;;28.45;42.11;99289.80;130446;1089;22644;-66
2021/06/22 08:57:23;;;;;;;91.15;17.18;;;;;;;28.50;41.75;99300.69;130402;1089;114903;-67
2021/06/22 08:59:51;;;;;;;117.70;16.50;;;;;;;28.57;42.15;99293.55;130487;1089;23447;-66
2021/06/22 09:02:39;;;;;;;122.28;18.00;;;;;;;28.64;42.55;99290.81;130398;1090;113770;-66
2021/06/22 09:05:07;;;;;;;118.98;18.50;;;;;;;28.72;41.63;99298.91;130450;1089;23053;-65
2021/06/22 09:07:42;;;;;;;121.00;18.83;;;;;;;28.78;40.67;99300.18;130533;1089;22532;-66
2021/06/22 09:10:24;;;;;;;128.48;21.33;;;;;;;28.84;40.49;99293.08;130391;1090;114291;-66
2021/06/22 09:12:53;;;;;;;99.68;19.08;;;;;;;28.92;40.54;99302.34;130501;1087;22561;-66
2021/06/22 09:15:29;;;;;;;128.30;19.48;;;;;;;28.94;40.71;99294.36;130346;1090;115173;-66
2021/06/22 09:17:58;;;;;;;;;;;;;;;28.96;40.34;99293.97;130599;1089;22672;-65
2021/06/22 09:20:40;;;;;;;121.73;21.60;;;;;;;28.95;39.47;99284.75;130319;1090;100186;-65
2021/06/22 09:23:19;;;;;;;114.73;17.73;;;;;;;28.92;39.92;99285.52;130518;1090;22533;-66
2021/06/22 09:25:48;;;;;;;110.30;21.08;;;;;;;28.91;39.89;99292.31;130422;1090;23306;-66
2021/06/22 09:28:21;;;;;;;110.23;18.13;;;;;;;28.91;40.18;99292.31;130410;1090;114686;-66
2021/06/22 09:30:57;;;;;;;109.43;20.83;;;;;;;28.92;39.55;99288.32;130459;1088;22605;-66
2021/06/22 09:33:27;;;;;;;138.88;20.45;;;;;;;28.93;39.30;99287.13;130412;1089;114302;-66
2021/06/22 09:36:05;;;;;;;116.70;20.18;;;;;;;28.94;38.59;99283.13;130465;1090;22556;-66
2021/06/22 09:38:53;;;;;;;111.55;18.90;;;;;;;28.96;39.69;99277.14;130398;1088;114918;-66
2021/06/22 09:41:31;;;;;;;109.83;18.23;;;;;;;29.00;38.99;99281.57;130431;1089;22558;-66
2021/06/22 09:44:10;;;;;;;89.80;16.15;;;;;;;29.06;38.48;99279.23;130510;1089;23087;-66
2021/06/22 09:46:43;;;;;;;101.68;16.73;;;;;;;29.09;38.56;99275.66;130310;1089;114147;-66
2021/06/22 09:49:13;;;;;;;116.05;17.68;;;;;;;29.12;39.05;99280.49;130509;1090;23362;-65
2021/06/22 09:51:51;;;;;;;105.53;21.33;;;;;;;29.15;38.59;99283.30;130361;1089;114347;-65
2021/06/22 09:54:30;;;;;;;93.23;17.15;;;;;;;29.20;38.60;99276.54;130519;1090;23402;-65
2021/06/22 09:57:05;;;;;;;103.78;18.58;;;;;;;29.25;37.90;99275.38;130395;1088;114430;-65
2021/06/22 10:00:05;;;;;;;90.95;17.60;;;;;;;29.27;37.71;99271.00;130527;1090;22563;-65
2021/06/22 10:02:48;;;;;;;105.15;16.03;;;;;;;29.29;38.22;99271.39;130357;1089;114194;-65
2021/06/22 10:05:16;;;;;;;78.38;15.30;;;;;;;29.32;39.07;99270.61;130232;1088;22622;-61
2021/06/22 10:07:56;;;;;;;98.05;17.43;;;;;;;29.35;38.88;99269.84;130394;1089;23220;-62
2021/06/22 10:10:43;;;;;;;91.93;17.30;;;;;;;29.40;38.65;99272.33;130369;1088;116620;-61
2021/06/22 10:13:43;;;;;;;79.30;16.60;;;;;;;29.44;37.50;99266.72;130400;1089;22565;-62
2021/06/22 10:16:25;;;;;;;107.53;20.40;;;;;;;29.47;37.17;99265.94;130384;1090;115021;-62
2021/06/22 10:18:54;;;;;;;112.60;17.43;;;;;;;29.52;35.15;99271.20;130210;1090;22564;-61
2021/06/22 10:21:22;;;;;;;106.18;17.08;;;;;;;29.52;35.22;99260.77;130375;1088;114393;-62
2021/06/22 10:23:51;;;;;;;110.50;17.88;;;;;;;29.53;35.72;99253.16;130423;1090;22674;-62
2021/06/22 10:26:20;;;;;;;115.40;18.43;;;;;;;29.53;35.43;99253.16;130404;1090;114842;-61
2021/06/22 10:28:48;;;;;;;103.60;19.20;;;;;;;29.54;35.85;99251.96;130475;1089;22712;-62
2021/06/22 10:31:17;;;;;;;112.28;20.23;;;;;;;29.55;35.58;99242.34;130534;1090;22591;-62
2021/06/22 10:33:45;;;;;;;125.00;17.20;;;;;;;29.60;35.60;99258.80;130379;1088;114474;-62
2021/06/22 10:36:38;;;;;;;103.08;16.65;;;;;;;29.66;34.89;99256.44;128459;1090;22898;-66
2021/06/22 10:39:09;;;;;;;107.70;17.45;;;;;;;29.68;35.78;99251.24;130356;1090;114734;-66
2021/06/22 10:41:40;;;;;;;108.48;16.58;;;;;;;29.68;35.11;99249.23;130468;1089;22591;-66
2021/06/22 10:44:27;;;;;;;98.00;16.80;;;;;;;29.70;36.04;99248.85;130481;1088;22561;-66
2021/06/22 10:47:18;;;;;;;84.90;15.83;;;;;;;29.73;35.24;99257.27;130409;1089;114181;-66
2021/06/22 10:50:19;;;;;;;110.65;16.60;;;;;;;29.74;35.21;99247.65;130446;1090;22642;-66
2021/06/22 10:52:51;;;;;;;89.75;15.63;;;;;;;29.76;35.69;99244.45;130269;1088;114997;-63
2021/06/22 10:55:28;;;;;;;97.63;16.98;;;;;;;29.78;36.00;99242.06;130501;1090;22542;-63
2021/06/22 10:57:57;;;;;;;96.15;16.58;;;;;;;29.77;36.11;99244.06;130366;1090;114157;-66
2021/06/22 11:00:26;;;;;;;112.18;19.45;;;;;;;29.77;35.75;99241.25;130498;1088;22600;-66
2021/06/22 11:03:10;;;;;;;101.48;17.18;;;;;;;29.78;35.94;99236.44;130390;1088;116750;-66
2021/06/22 11:05:39;;;;;;;88.93;15.95;;;;;;;29.78;36.81;99242.86;129585;1088;26440;-65
2021/06/22 11:08:08;;;;;;;89.58;16.15;;;;;;;29.81;36.87;99241.28;125923;1090;22836;-65
2021/06/22 11:10:55;;;;;;;104.70;16.00;;;;;;;29.86;36.75;99243.72;125735;1088;113841;-64
2021/06/22 11:13:40;;;;;;;109.53;17.65;;;;;;;29.87;37.01;99246.11;125806;1088;24459;-65
2021/06/22 11:16:17;;;;;;;81.55;16.58;;;;;;;29.87;37.58;99246.11;125708;1089;114562;-65
2021/06/22 11:18:55;;;;;;;83.08;17.03;;;;;;;29.90;37.38;99248.14;125808;1089;22800;-65
2021/06/22 11:21:24;;;;;;;110.83;20.00;;;;;;;29.93;37.37;99252.17;130397;1088;114157;-66
2021/06/22 11:23:57;;;;;;;112.17;20.83;;;;;;;29.94;36.50;99256.59;130479;1089;23397;-66
2021/06/22 11:26:25;;;;;;;115.88;21.33;;;;;;;29.94;35.95;99258.59;130518;1090;22578;-66